Time;durP1;ratioP1;P1;durP2;ratioP2;P2;SDS_P1;SDS_P2;PMS_P1;PMS_P2;Temp;Humidity;BMP_temperature;BMP_pressure;BME280_temperature;BME280_humidity;BME280_pressure;Samples;Min_cycle;Max_cycle;Signal;HPM_P1;HPM_P2
2021/01/10 00:00:07;;;;;;;5.97;5.37;;;2.80;99.90;;;;;;5087313;28;20425;-79
2021/01/10 00:02:33;;;;;;;8.00;5.37;;;2.80;99.90;;;;;;5085933;28;20179;-78
2021/01/10 00:05:00;;;;;;;5.67;4.70;;;2.70;99.90;;;;;;5084921;28;20398;-79
2021/01/10 00:07:26;;;;;;;7.37;5.47;;;2.70;99.90;;;;;;5084938;28;20235;-78
2021/01/10 00:09:52;;;;;;;6.50;4.90;;;2.70;99.90;;;;;;5085055;28;20409;-78
2021/01/10 00:12:27;;;;;;;6.43;5.03;;;2.70;99.90;;;;;;5085519;28;20376;-79
2021/01/10 00:14:54;;;;;;;6.40;4.23;;;2.60;99.90;;;;;;5086032;28;20466;-78
2021/01/10 00:17:20;;;;;;;9.53;5.57;;;2.50;99.90;;;;;;5085735;28;20402;-79
2021/01/10 00:19:48;;;;;;;10.30;7.00;;;2.50;99.90;;;;;;5084757;28;20388;-78
2021/01/10 00:22:16;;;;;;;13.80;4.93;;;2.50;99.90;;;;;;5085611;28;20386;-79
2021/01/10 00:24:42;;;;;;;7.77;5.07;;;2.60;99.90;;;;;;5085162;28;20404;-79
2021/01/10 00:27:11;;;;;;;8.13;6.27;;;2.50;99.90;;;;;;5085095;28;20397;-79
2021/01/10 00:29:38;;;;;;;5.83;5.20;;;2.50;99.90;;;;;;5084468;28;20159;-79
2021/01/10 00:32:05;;;;;;;5.63;4.83;;;2.50;99.90;;;;;;5084767;28;20379;-79
2021/01/10 00:34:31;;;;;;;6.00;4.80;;;2.40;99.90;;;;;;5085642;28;20394;-79
2021/01/10 00:36:57;;;;;;;8.30;5.60;;;2.40;99.90;;;;;;5084711;28;20386;-79
2021/01/10 00:39:23;;;;;;;6.87;5.30;;;2.50;99.90;;;;;;5084534;28;20440;-78
2021/01/10 00:41:49;;;;;;;9.33;6.10;;;2.50;99.90;;;;;;5085007;28;20151;-78
2021/01/10 00:44:15;;;;;;;8.47;5.90;;;2.50;99.90;;;;;;5084339;28;20572;-78
2021/01/10 00:46:40;;;;;;;8.13;6.23;;;2.50;99.90;;;;;;5084569;28;20382;-78
2021/01/10 00:49:06;;;;;;;8.20;4.67;;;2.50;99.90;;;;;;5085458;28;20160;-78
2021/01/10 00:51:32;;;;;;;7.47;6.40;;;2.40;99.90;;;;;;5086159;28;20159;-79
2021/01/10 00:53:58;;;;;;;7.77;5.13;;;2.30;99.90;;;;;;5085781;28;20217;-79
2021/01/10 00:56:24;;;;;;;9.80;6.23;;;2.30;99.90;;;;;;5085031;28;20162;-79
2021/01/10 00:58:49;;;;;;;11.10;6.13;;;2.30;99.90;;;;;;5084772;28;20187;-79
2021/01/10 01:01:15;;;;;;;5.80;4.33;;;2.30;99.90;;;;;;5085733;28;20164;-79
2021/01/10 01:03:41;;;;;;;9.20;6.00;;;2.30;99.90;;;;;;5086486;28;20152;-79
2021/01/10 01:06:11;;;;;;;6.47;5.30;;;2.20;99.90;;;;;;5085692;28;20390;-79
2021/01/10 01:08:37;;;;;;;9.40;5.40;;;2.20;99.90;;;;;;5085496;28;20237;-78
2021/01/10 01:11:03;;;;;;;5.20;4.70;;;2.10;99.90;;;;;;5085608;28;20408;-78
2021/01/10 01:13:29;;;;;;;8.27;5.97;;;2.10;99.90;;;;;;5086893;28;20317;-79
2021/01/10 01:15:55;;;;;;;7.30;5.57;;;2.10;99.90;;;;;;5085155;28;20409;-79
2021/01/10 01:18:21;;;;;;;12.07;6.73;;;2.10;99.90;;;;;;5085403;28;20442;-79
2021/01/10 01:20:47;;;;;;;5.90;5.30;;;2.00;99.90;;;;;;5086910;28;20195;-79
2021/01/10 01:23:13;;;;;;;8.40;6.87;;;2.00;99.90;;;;;;5086768;28;20187;-79
2021/01/10 01:25:39;;;;;;;10.90;7.80;;;2.00;99.90;;;;;;5086336;28;20215;-79
2021/01/10 01:28:05;;;;;;;5.50;4.90;;;2.00;99.90;;;;;;5085709;28;20173;-79
2021/01/10 01:30:32;;;;;;;9.00;5.80;;;1.90;99.90;;;;;;5087475;28;20398;-79
2021/01/10 01:32:58;;;;;;;10.87;4.90;;;1.90;99.90;;;;;;5089270;28;20401;-79
2021/01/10 01:35:24;;;;;;;9.17;5.80;;;1.90;99.90;;;;;;5096441;28;20394;-79
2021/01/10 01:37:49;;;;;;;7.60;4.83;;;1.90;99.90;;;;;;5096830;28;20199;-79
2021/01/10 01:40:15;;;;;;;10.30;7.20;;;1.90;99.90;;;;;;5092190;28;20156;-79
2021/01/10 01:42:41;;;;;;;7.57;5.33;;;1.80;99.90;;;;;;5088520;28;20217;-79
2021/01/10 01:45:08;;;;;;;8.70;6.60;;;1.70;99.90;;;;;;5070006;28;20152;-78
2021/01/10 01:47:35;;;;;;;9.13;5.20;;;1.80;99.90;;;;;;5088904;28;20280;-78
2021/01/10 01:50:03;;;;;;;8.90;5.87;;;1.70;99.90;;;;;;5087221;28;20384;-79
2021/01/10 01:52:29;;;;;;;9.50;5.93;;;1.70;99.90;;;;;;5087838;28;20394;-79
2021/01/10 01:54:56;;;;;;;10.43;7.10;;;1.60;99.90;;;;;;5087701;28;20444;-80
2021/01/10 01:57:22;;;;;;;9.23;5.30;;;1.60;99.90;;;;;;5088338;28;20433;-78
2021/01/10 01:59:48;;;;;;;5.40;4.90;;;1.60;99.90;;;;;;5087419;28;20409;-79
2021/01/10 02:02:14;;;;;;;6.40;4.20;;;1.60;99.90;;;;;;5086984;28;20380;-79
2021/01/10 02:04:47;;;;;;;5.60;5.03;;;1.60;99.90;;;;;;5087589;28;20581;-79
2021/01/10 02:07:24;;;;;;;6.43;4.77;;;1.60;99.90;;;;;;5085695;28;20457;-79
2021/01/10 02:09:58;;;;;;;11.37;5.07;;;1.60;99.90;;;;;;5088305;28;20408;-78
2021/01/10 02:12:26;;;;;;;9.40;6.83;;;1.70;99.90;;;;;;5087621;28;20376;-79
2021/01/10 02:14:58;;;;;;;10.50;5.87;;;1.60;99.90;;;;;;5088220;28;20423;-79
2021/01/10 02:17:26;;;;;;;6.03;4.80;;;1.60;99.90;;;;;;5088423;28;20475;-79
2021/01/10 02:20:01;;;;;;;8.60;6.03;;;1.60;99.90;;;;;;5087581;28;20429;-79
2021/01/10 02:22:32;;;;;;;7.33;5.17;;;1.70;99.90;;;;;;5089321;28;20407;-79
2021/01/10 02:24:59;;;;;;;8.40;4.57;;;1.60;99.90;;;;;;5085602;28;20394;-79
2021/01/10 02:27:25;;;;;;;8.60;6.97;;;1.60;99.90;;;;;;5086908;28;20578;-79
2021/01/10 02:29:52;;;;;;;7.00;5.73;;;1.60;99.90;;;;;;5089938;28;20405;-79
2021/01/10 02:32:20;;;;;;;5.30;4.80;;;1.60;99.90;;;;;;5097939;28;20155;-79
2021/01/10 02:34:47;;;;;;;11.10;6.40;;;1.60;99.90;;;;;;5097905;28;20414;-79
2021/01/10 02:37:31;;;;;;;4.77;4.37;;;1.50;99.90;;;;;;5099888;28;20399;-78
2021/01/10 02:40:07;;;;;;;10.23;5.30;;;1.40;99.90;;;;;;5098431;28;20409;-79
2021/01/10 02:42:53;;;;;;;8.70;5.03;;;1.40;99.90;;;;;;5088169;28;20433;-79
2021/01/10 02:45:20;;;;;;;6.40;4.90;;;1.20;99.90;;;;;;5087114;28;20412;-79
2021/01/10 02:47:47;;;;;;;7.97;5.87;;;1.40;99.90;;;;;;5087312;28;20394;-79
2021/01/10 02:50:17;;;;;;;9.30;5.20;;;1.30;99.90;;;;;;5087578;28;20424;-79
2021/01/10 02:52:45;;;;;;;7.23;3.90;;;1.50;99.90;;;;;;5086441;28;20415;-79
2021/01/10 02:55:12;;;;;;;6.97;5.73;;;1.60;99.90;;;;;;5086037;28;20462;-79
2021/01/10 02:57:38;;;;;;;8.13;6.03;;;1.70;99.90;;;;;;5086901;28;20489;-79
2021/01/10 03:00:07;;;;;;;7.37;5.60;;;1.70;99.90;;;;;;5087578;28;20436;-79
2021/01/10 03:02:35;;;;;;;6.53;5.60;;;1.80;99.90;;;;;;5087580;28;20424;-79
2021/01/10 03:05:04;;;;;;;6.80;4.13;;;1.80;99.90;;;;;;5086723;28;20398;-79
2021/01/10 03:07:33;;;;;;;7.70;5.10;;;1.70;99.90;;;;;;5086235;28;20440;-78
2021/01/10 03:09:58;;;;;;;5.97;4.90;;;1.70;99.90;;;;;;5086872;28;20398;-79
2021/01/10 03:12:25;;;;;;;6.23;5.43;;;1.70;99.90;;;;;;5086087;28;20443;-79
2021/01/10 03:14:52;;;;;;;7.10;6.17;;;1.60;99.90;;;;;;5087192;28;20178;-79
2021/01/10 03:17:37;;;;;;;6.43;4.40;;;1.60;99.90;;;;;;5086715;28;20437;-79
2021/01/10 03:20:06;;;;;;;6.90;6.20;;;1.70;99.90;;;;;;5085962;28;20501;-79
2021/01/10 03:22:32;;;;;;;4.50;3.80;;;1.80;99.90;;;;;;5087192;28;20473;-79
2021/01/10 03:24:58;;;;;;;10.10;6.20;;;1.80;99.90;;;;;;5087030;28;20436;-79
2021/01/10 03:27:24;;;;;;;4.80;4.40;;;1.90;99.90;;;;;;5085884;28;20480;-78
2021/01/10 03:29:50;;;;;;;6.77;6.17;;;1.80;99.90;;;;;;5088166;28;20394;-79
2021/01/10 03:32:16;;;;;;;9.27;5.53;;;1.80;99.90;;;;;;5087713;28;20501;-79
2021/01/10 03:34:42;;;;;;;5.83;3.97;;;1.80;99.90;;;;;;5087096;28;20198;-79
2021/01/10 03:37:07;;;;;;;5.03;4.27;;;1.80;99.90;;;;;;5087390;28;20232;-79
2021/01/10 03:39:34;;;;;;;7.47;5.20;;;1.60;99.90;;;;;;5086464;28;20195;-79
2021/01/10 03:42:00;;;;;;;7.43;5.87;;;1.50;99.90;;;;;;5088090;28;20398;-79
2021/01/10 03:44:26;;;;;;;6.27;5.30;;;1.40;99.90;;;;;;5088369;28;20417;-78
2021/01/10 03:46:52;;;;;;;7.60;6.17;;;1.40;99.90;;;;;;5087637;28;20164;-79
2021/01/10 03:49:18;;;;;;;6.33;4.23;;;1.50;99.90;;;;;;5088310;28;20387;-79
2021/01/10 03:51:44;;;;;;;6.70;5.20;;;1.40;99.90;;;;;;5086344;28;20503;-79
2021/01/10 03:54:10;;;;;;;9.73;6.63;;;1.40;99.90;;;;;;5085469;28;20398;-79
2021/01/10 03:56:35;;;;;;;10.43;5.80;;;1.40;99.90;;;;;;5087355;28;20159;-79
2021/01/10 03:59:01;;;;;;;6.00;4.43;;;1.00;99.90;;;;;;5086127;28;20190;-79
2021/01/10 04:01:27;;;;;;;6.80;4.50;;;0.50;99.90;;;;;;5086438;28;20163;-79
2021/01/10 04:03:53;;;;;;;7.10;4.37;;;0.30;99.90;;;;;;5085730;28;20210;-79
2021/01/10 04:06:19;;;;;;;5.37;4.27;;;0.20;99.90;;;;;;5086861;28;20159;-79
2021/01/10 04:08:46;;;;;;;4.37;4.00;;;0.10;99.90;;;;;;5086931;28;20254;-79
2021/01/10 04:11:13;;;;;;;5.63;4.13;;;0.00;99.90;;;;;;5088044;28;20397;-79
2021/01/10 04:13:40;;;;;;;9.20;4.80;;;0.00;99.90;;;;;;5087475;28;20402;-80
2021/01/10 04:16:05;;;;;;;6.90;3.70;;;0.10;99.90;;;;;;5086821;28;20406;-79
2021/01/10 04:18:32;;;;;;;6.73;4.07;;;0.10;99.90;;;;;;5086198;28;20452;-79
2021/01/10 04:20:57;;;;;;;6.83;4.83;;;0.20;99.90;;;;;;5090135;28;20421;-79
2021/01/10 04:23:23;;;;;;;9.60;5.20;;;0.40;99.90;;;;;;5096942;28;20408;-78
2021/01/10 04:25:50;;;;;;;7.77;4.87;;;0.60;99.90;;;;;;5097098;28;20159;-78
2021/01/10 04:28:16;;;;;;;7.80;5.77;;;0.90;99.90;;;;;;5096864;28;20166;-79
2021/01/10 04:30:42;;;;;;;7.67;5.30;;;1.10;99.90;;;;;;5078735;28;20402;-78
2021/01/10 04:33:08;;;;;;;12.70;6.77;;;1.30;99.90;;;;;;5096660;28;20416;-77
2021/01/10 04:35:34;;;;;;;6.87;5.80;;;1.40;99.90;;;;;;5097219;28;20425;-77
2021/01/10 04:38:00;;;;;;;6.80;6.10;;;1.50;99.90;;;;;;5096251;28;20416;-79
2021/01/10 04:40:26;;;;;;;9.13;4.30;;;1.50;99.90;;;;;;5096840;28;20261;-77
2021/01/10 04:42:52;;;;;;;6.50;5.20;;;1.50;99.90;;;;;;5097963;28;20175;-79
2021/01/10 04:45:18;;;;;;;7.57;6.00;;;1.50;99.90;;;;;;5096624;28;20182;-77
2021/01/10 04:47:44;;;;;;;7.40;5.17;;;1.50;99.90;;;;;;5069717;28;20426;-80
2021/01/10 04:50:10;;;;;;;5.57;4.47;;;1.50;99.90;;;;;;5065573;28;20410;-79
2021/01/10 04:52:38;;;;;;;7.20;6.00;;;1.60;99.90;;;;;;5065489;28;20164;-80
2021/01/10 04:55:05;;;;;;;7.13;4.93;;;1.60;99.90;;;;;;5066078;28;20392;-81
2021/01/10 04:57:33;;;;;;;4.93;4.43;;;1.60;99.90;;;;;;5066348;28;20918;-80
2021/01/10 04:59:59;;;;;;;6.30;4.43;;;1.60;99.90;;;;;;5065084;28;20426;-80
2021/01/10 05:02:27;;;;;;;4.33;3.97;;;1.50;99.90;;;;;;5067167;28;20402;-81
2021/01/10 05:04:54;;;;;;;6.00;5.03;;;1.60;99.90;;;;;;5067388;28;20414;-80
2021/01/10 05:07:20;;;;;;;9.00;6.77;;;1.50;99.90;;;;;;5070846;28;20458;-81
2021/01/10 05:09:46;;;;;;;8.47;5.50;;;1.50;99.90;;;;;;5081296;28;20401;-79
2021/01/10 05:12:12;;;;;;;9.70;5.67;;;1.40;99.90;;;;;;5064065;28;20157;-80
2021/01/10 05:14:38;;;;;;;7.33;5.40;;;1.40;99.90;;;;;;5077270;28;20410;-79
2021/01/10 05:17:04;;;;;;;9.33;5.43;;;1.50;99.90;;;;;;5071923;28;20429;-80
2021/01/10 05:19:30;;;;;;;10.73;5.50;;;1.60;99.90;;;;;;5071532;28;20199;-81
2021/01/10 05:21:56;;;;;;;6.43;5.43;;;1.60;99.90;;;;;;5070959;28;20179;-81
2021/01/10 05:24:22;;;;;;;5.50;4.43;;;1.60;99.90;;;;;;5070981;28;20402;-80
2021/01/10 05:26:48;;;;;;;8.40;6.40;;;1.60;99.90;;;;;;5068813;28;20855;-80
2021/01/10 05:29:15;;;;;;;5.40;4.87;;;1.60;99.90;;;;;;5069992;28;20422;-80
2021/01/10 05:31:43;;;;;;;8.20;4.67;;;1.60;99.90;;;;;;5070358;28;20407;-80
2021/01/10 05:34:14;;;;;;;6.97;4.90;;;1.60;99.90;;;;;;5070129;28;20394;-81
2021/01/10 05:36:40;;;;;;;5.50;4.90;;;1.70;99.90;;;;;;5071107;28;20395;-80
2021/01/10 05:39:27;;;;;;;6.97;4.73;;;1.70;99.90;;;;;;5051246;28;20886;-80
2021/01/10 05:41:57;;;;;;;9.50;5.47;;;1.70;99.90;;;;;;5070278;28;20430;-80
2021/01/10 05:44:25;;;;;;;7.83;4.30;;;1.70;99.90;;;;;;5073407;28;20394;-79
2021/01/10 05:47:09;;;;;;;7.90;5.30;;;1.70;99.90;;;;;;5068906;28;20397;-79
2021/01/10 05:49:43;;;;;;;7.33;4.50;;;1.70;99.90;;;;;;5071534;28;20523;-80
2021/01/10 05:52:11;;;;;;;14.47;5.93;;;1.60;99.90;;;;;;5069441;28;20409;-80
2021/01/10 05:54:46;;;;;;;5.50;4.90;;;1.60;99.90;;;;;;5069321;28;20415;-80
2021/01/10 05:57:13;;;;;;;8.43;4.47;;;1.60;99.90;;;;;;5053180;28;20376;-80
2021/01/10 05:59:48;;;;;;;5.50;3.90;;;1.50;99.90;;;;;;5069755;28;20399;-79
2021/01/10 06:02:26;;;;;;;5.17;4.70;;;1.60;99.90;;;;;;5069656;28;20579;-79
2021/01/10 06:05:06;;;;;;;5.20;4.70;;;1.60;99.90;;;;;;5052665;28;20391;-80
2021/01/10 06:07:32;;;;;;;7.67;4.67;;;1.50;99.90;;;;;;5069357;28;20458;-80
2021/01/10 06:09:58;;;;;;;9.13;7.13;;;1.50;99.90;;;;;;5070059;28;20412;-80
2021/01/10 06:12:24;;;;;;;7.73;5.60;;;1.50;99.90;;;;;;5070521;28;20168;-80
2021/01/10 06:14:51;;;;;;;7.10;5.50;;;1.50;99.90;;;;;;5071781;28;20149;-80
2021/01/10 06:17:17;;;;;;;8.67;6.23;;;1.50;99.90;;;;;;5074503;28;20399;-80
2021/01/10 06:19:45;;;;;;;5.20;4.80;;;1.40;99.90;;;;;;5075408;28;20442;-80
2021/01/10 06:22:18;;;;;;;6.60;5.63;;;1.40;99.90;;;;;;5072439;28;20721;-79
2021/01/10 06:24:46;;;;;;;7.67;5.03;;;1.50;99.90;;;;;;5069320;28;20399;-80
2021/01/10 06:27:22;;;;;;;7.80;4.87;;;1.50;99.90;;;;;;5069302;28;20402;-80
2021/01/10 06:29:54;;;;;;;8.60;5.53;;;1.50;99.90;;;;;;5068812;28;20405;-80
2021/01/10 06:32:24;;;;;;;11.40;7.00;;;1.50;99.90;;;;;;5068449;28;20876;-80
2021/01/10 06:34:51;;;;;;;7.53;5.70;;;1.60;99.90;;;;;;5068935;28;20399;-80
2021/01/10 06:37:18;;;;;;;5.77;4.87;;;1.60;99.90;;;;;;5068124;28;20489;-80
2021/01/10 06:39:47;;;;;;;10.60;5.67;;;1.60;99.90;;;;;;5068490;28;20458;-80
2021/01/10 06:42:15;;;;;;;6.60;4.87;;;1.70;99.90;;;;;;5050698;28;20391;-80
2021/01/10 06:44:45;;;;;;;9.00;4.70;;;1.70;99.90;;;;;;5067660;28;20390;-80
2021/01/10 06:47:27;;;;;;;8.30;6.43;;;1.70;99.90;;;;;;5068347;28;20418;-80
2021/01/10 06:49:53;;;;;;;7.40;5.60;;;1.60;99.90;;;;;;5050960;28;20399;-80
2021/01/10 06:52:22;;;;;;;5.70;5.10;;;1.60;99.90;;;;;;5069962;28;20419;-80
2021/01/10 06:54:49;;;;;;;16.00;7.37;;;1.50;99.90;;;;;;5069076;28;20164;-80
2021/01/10 06:57:15;;;;;;;9.50;5.50;;;1.40;99.90;;;;;;5068674;28;20477;-80
2021/01/10 06:59:56;;;;;;;7.60;4.70;;;1.50;99.90;;;;;;5069136;28;20402;-79
2021/01/10 07:02:22;;;;;;;7.43;5.43;;;1.50;99.90;;;;;;5069566;28;20156;-80
2021/01/10 07:04:58;;;;;;;8.57;6.10;;;1.60;99.90;;;;;;5067955;28;20398;-80
2021/01/10 07:07:37;;;;;;;15.80;6.50;;;1.60;99.90;;;;;;5067171;28;20465;-80
2021/01/10 07:10:06;;;;;;;6.03;4.60;;;1.70;99.90;;;;;;5068138;28;20394;-79
2021/01/10 07:12:32;;;;;;;13.33;7.27;;;1.70;99.90;;;;;;5067813;28;20386;-79
2021/01/10 07:15:29;;;;;;;8.37;5.77;;;1.70;99.90;;;;;;5067435;28;20529;-79
2021/01/10 07:18:04;;;;;;;6.93;4.47;;;1.70;99.90;;;;;;5067805;28;20200;-80
2021/01/10 07:20:32;;;;;;;14.50;7.50;;;1.70;99.90;;;;;;5067481;28;20434;-80
2021/01/10 07:23:24;;;;;;;5.20;4.70;;;1.60;99.90;;;;;;5067745;28;20394;-80
2021/01/10 07:25:50;;;;;;;5.43;4.80;;;1.60;99.90;;;;;;5067516;28;20468;-80
2021/01/10 07:28:32;;;;;;;7.53;5.20;;;1.70;99.90;;;;;;5067468;28;20926;-80
2021/01/10 07:31:07;;;;;;;6.67;5.47;;;1.70;99.90;;;;;;5067704;28;20501;-79
2021/01/10 07:33:33;;;;;;;5.20;4.20;;;1.70;99.90;;;;;;5067068;28;20365;-80
2021/01/10 07:35:59;;;;;;;9.30;6.33;;;1.70;99.90;;;;;;5067118;28;20852;-78
2021/01/10 07:38:27;;;;;;;6.63;3.73;;;1.60;99.90;;;;;;5066818;28;20484;-80
2021/01/10 07:40:53;;;;;;;8.90;6.43;;;1.60;99.90;;;;;;5066964;28;20398;-80
2021/01/10 07:43:19;;;;;;;6.30;5.43;;;1.60;99.90;;;;;;5067725;28;20402;-80
2021/01/10 07:45:45;;;;;;;6.47;4.60;;;1.60;99.90;;;;;;5050136;28;20430;-80
2021/01/10 07:48:25;;;;;;;6.73;4.83;;;1.60;99.90;;;;;;5067795;28;20186;-79
2021/01/10 07:51:13;;;;;;;8.77;4.37;;;1.70;99.90;;;;;;5067369;28;20210;-80
2021/01/10 07:53:48;;;;;;;8.50;5.70;;;1.60;99.90;;;;;;5067288;28;20449;-80
2021/01/10 07:56:15;;;;;;;6.50;5.70;;;1.70;99.90;;;;;;5048754;28;20410;-79
2021/01/10 07:58:41;;;;;;;5.80;4.20;;;1.70;99.90;;;;;;5066331;28;20473;-80
2021/01/10 08:01:07;;;;;;;10.70;6.30;;;1.70;99.90;;;;;;5067613;28;20403;-80
2021/01/10 08:03:33;;;;;;;8.47;6.93;;;1.70;99.90;;;;;;5067655;28;20229;-80
2021/01/10 08:06:04;;;;;;;10.73;6.07;;;1.70;99.90;;;;;;5067512;28;20160;-80
2021/01/10 08:08:40;;;;;;;10.43;5.10;;;1.70;99.90;;;;;;5067071;28;20224;-80
2021/01/10 08:11:08;;;;;;;8.47;5.00;;;1.80;99.90;;;;;;5067353;28;20390;-80
2021/01/10 08:13:36;;;;;;;9.83;6.30;;;1.80;99.90;;;;;;5067239;28;20398;-80
2021/01/10 08:16:09;;;;;;;9.23;5.23;;;1.80;99.90;;;;;;5068041;28;20414;-80
2021/01/10 08:18:38;;;;;;;11.23;5.90;;;1.50;99.90;;;;;;5051185;28;20529;-80
2021/01/10 08:21:10;;;;;;;6.50;5.33;;;1.60;99.90;;;;;;5068618;28;20521;-80
2021/01/10 08:23:37;;;;;;;6.67;5.80;;;1.70;99.90;;;;;;5060204;28;20474;-80
2021/01/10 08:26:09;;;;;;;6.00;5.17;;;1.70;99.90;;;;;;5078003;28;20400;-80
2021/01/10 08:28:39;;;;;;;7.70;6.20;;;1.10;99.90;;;;;;5078134;28;20394;-79
2021/01/10 08:31:07;;;;;;;6.70;5.00;;;1.10;99.90;;;;;;5071453;28;20466;-80
2021/01/10 08:33:33;;;;;;;8.77;6.17;;;1.50;99.90;;;;;;5065809;28;20444;-80
2021/01/10 08:36:20;;;;;;;8.23;5.80;;;1.70;99.90;;;;;;5065291;28;20446;-79
2021/01/10 08:39:01;;;;;;;8.40;6.80;;;1.90;99.90;;;;;;5063437;28;20484;-79
2021/01/10 08:41:30;;;;;;;9.40;6.00;;;2.00;99.90;;;;;;5068812;28;20412;-80
2021/01/10 08:43:59;;;;;;;9.70;5.70;;;2.10;99.90;;;;;;5070741;28;20448;-79
2021/01/10 08:46:27;;;;;;;10.57;8.10;;;2.10;99.90;;;;;;5055409;28;20362;-80
2021/01/10 08:48:53;;;;;;;13.20;8.00;;;2.20;99.90;;;;;;5074156;28;20391;-79
2021/01/10 08:51:32;;;;;;;13.33;7.07;;;2.20;99.90;;;;;;5072554;28;20418;-80
2021/01/10 08:54:00;;;;;;;6.83;5.20;;;2.20;99.90;;;;;;5072209;28;20399;-79
2021/01/10 08:56:26;;;;;;;10.50;7.43;;;2.20;99.90;;;;;;5050963;28;20422;-80
2021/01/10 08:58:54;;;;;;;8.00;5.93;;;2.20;99.90;;;;;;5070348;28;20417;-80
2021/01/10 09:01:22;;;;;;;10.00;6.47;;;2.10;99.90;;;;;;5070284;28;20481;-80
2021/01/10 09:04:05;;;;;;;9.53;6.00;;;1.90;99.90;;;;;;5071327;28;20373;-80
2021/01/10 09:06:47;;;;;;;9.67;7.60;;;1.70;99.90;;;;;;5070603;28;20383;-80
2021/01/10 09:09:27;;;;;;;6.53;4.80;;;1.40;99.90;;;;;;5070291;28;20377;-79
2021/01/10 09:12:17;;;;;;;10.87;5.30;;;1.00;99.90;;;;;;5069366;28;20438;-80
2021/01/10 09:15:08;;;;;;;13.50;7.23;;;1.30;99.90;;;;;;5070600;28;20398;-79
2021/01/10 09:17:38;;;;;;;8.83;5.13;;;1.50;99.90;;;;;;5069832;28;20423;-80
2021/01/10 09:20:11;;;;;;;9.83;6.40;;;1.20;99.90;;;;;;5069888;28;20439;-80
2021/01/10 09:22:36;;;;;;;6.27;5.73;;;1.00;99.90;;;;;;5069380;28;20391;-80
2021/01/10 09:25:15;;;;;;;19.43;7.60;;;0.90;99.90;;;;;;5068943;28;20790;-80
2021/01/10 09:28:09;;;;;;;16.67;8.00;;;1.10;99.90;;;;;;5069701;28;20194;-79
2021/01/10 09:30:37;;;;;;;10.90;6.93;;;1.40;99.90;;;;;;5066749;28;20509;-80
2021/01/10 09:33:05;;;;;;;13.27;7.27;;;1.30;99.90;;;;;;5069481;28;20406;-80
2021/01/10 09:35:44;;;;;;;12.20;6.63;;;1.60;99.90;;;;;;5069718;28;20370;-80
2021/01/10 09:38:17;;;;;;;11.80;6.13;;;1.50;99.90;;;;;;5069668;28;20408;-80
2021/01/10 09:41:13;;;;;;;9.67;6.53;;;1.30;99.90;;;;;;5051978;28;20402;-80
2021/01/10 09:43:49;;;;;;;10.70;6.77;;;1.30;99.90;;;;;;5051336;28;20425;-80
2021/01/10 09:46:34;;;;;;;8.43;7.53;;;1.40;99.90;;;;;;5055549;28;20388;-80
2021/01/10 09:49:05;;;;;;;17.93;7.97;;;1.40;99.90;;;;;;5073201;28;20395;-80
2021/01/10 09:51:38;;;;;;;7.40;6.10;;;1.40;99.90;;;;;;5074496;28;20374;-80
2021/01/10 09:54:16;;;;;;;9.23;6.00;;;1.40;99.90;;;;;;5056741;28;20406;-80
2021/01/10 09:56:48;;;;;;;12.90;8.37;;;1.90;99.90;;;;;;5070313;28;20459;-80
2021/01/10 09:59:41;;;;;;;11.50;6.70;;;2.00;99.90;;;;;;5070338;28;20446;-80
2021/01/10 10:02:11;;;;;;;8.83;7.40;;;1.50;99.90;;;;;;5069697;28;20456;-79
2021/01/10 10:04:37;;;;;;;11.03;6.40;;;1.50;99.90;;;;;;5069323;28;20372;-80
2021/01/10 10:07:04;;;;;;;14.70;7.43;;;1.80;99.90;;;;;;5068699;28;20438;-80
2021/01/10 10:09:48;;;;;;;11.00;6.63;;;1.60;99.90;;;;;;5068813;28;20380;-80
2021/01/10 10:12:16;;;;;;;8.50;6.50;;;1.60;99.90;;;;;;5031562;28;20422;-80
2021/01/10 10:14:50;;;;;;;8.57;6.43;;;1.90;99.90;;;;;;5067138;28;20369;-80
2021/01/10 10:17:18;;;;;;;11.60;8.87;;;2.30;99.90;;;;;;5067338;28;20395;-80
2021/01/10 10:19:44;;;;;;;10.40;6.53;;;2.70;99.90;;;;;;5050209;28;20413;-80
2021/01/10 10:22:31;;;;;;;13.20;9.63;;;3.10;99.90;;;;;;5067874;28;20394;-80
2021/01/10 10:24:58;;;;;;;8.87;7.20;;;3.50;99.90;;;;;;5067501;28;20167;-79
2021/01/10 10:27:26;;;;;;;6.80;4.97;;;3.50;99.90;;;;;;5050267;28;20365;-81
2021/01/10 10:29:52;;;;;;;10.73;6.70;;;3.50;99.90;;;;;;5067948;28;20422;-80
2021/01/10 10:32:17;;;;;;;11.73;8.00;;;3.50;99.90;;;;;;5067952;28;20382;-80
2021/01/10 10:34:43;;;;;;;8.00;5.27;;;3.50;99.90;;;;;;5067640;28;20333;-80
2021/01/10 10:37:09;;;;;;;8.40;5.03;;;2.90;99.90;;;;;;5067013;28;20251;-79
2021/01/10 10:39:36;;;;;;;9.20;7.37;;;3.20;99.90;;;;;;5067125;28;20192;-80
2021/01/10 10:42:04;;;;;;;8.03;6.20;;;4.40;99.90;;;;;;5067615;28;20172;-80
2021/01/10 10:44:31;;;;;;;14.67;8.27;;;5.30;99.90;;;;;;5067568;28;20388;-81
2021/01/10 10:46:57;;;;;;;11.30;7.57;;;6.50;99.90;;;;;;5066146;28;20412;-80
2021/01/10 10:49:22;;;;;;;12.73;7.90;;;7.60;99.90;;;;;;5067139;28;20403;-79
2021/01/10 10:51:48;;;;;;;15.43;9.20;;;6.00;99.90;;;;;;5068475;28;20418;-80
2021/01/10 10:54:15;;;;;;;13.97;7.77;;;6.00;99.90;;;;;;5066936;28;20175;-79
2021/01/10 10:56:42;;;;;;;10.80;8.73;;;5.40;99.90;;;;;;5066357;28;20302;-78
2021/01/10 10:59:09;;;;;;;12.70;8.50;;;6.10;99.90;;;;;;5049376;28;20425;-78
2021/01/10 11:01:45;;;;;;;9.50;7.10;;;6.30;99.90;;;;;;5067248;28;20831;-79
2021/01/10 11:04:11;;;;;;;8.20;6.40;;;4.80;99.90;;;;;;5049855;28;20449;-78
2021/01/10 11:06:38;;;;;;;13.67;7.60;;;5.00;99.90;;;;;;5062685;28;20826;-77
2021/01/10 11:09:06;;;;;;;13.03;8.30;;;4.10;99.90;;;;;;5031397;28;20474;-79
2021/01/10 11:11:58;;;;;;;15.20;9.90;;;4.00;99.90;;;;;;5069848;28;20437;-79
2021/01/10 11:14:24;;;;;;;15.00;9.20;;;6.00;99.90;;;;;;5048564;28;20476;-78
2021/01/10 11:16:51;;;;;;;12.47;8.03;;;7.60;99.90;;;;;;5066326;28;20464;-81
2021/01/10 11:19:17;;;;;;;16.27;9.70;;;7.90;99.90;;;;;;5066552;28;20203;-81
2021/01/10 11:21:45;;;;;;;10.20;7.90;;;8.50;99.90;;;;;;5065696;28;20377;-81
2021/01/10 11:24:11;;;;;;;14.57;10.00;;;9.40;99.90;;;;;;5032365;28;20385;-80
2021/01/10 11:26:39;;;;;;;12.43;7.97;;;10.40;99.90;;;;;;5066709;28;20429;-80
2021/01/10 11:29:06;;;;;;;14.20;9.47;;;11.30;99.90;;;;;;5065891;28;20448;-79
2021/01/10 11:31:33;;;;;;;13.70;9.90;;;12.30;99.90;;;;;;5068539;28;20373;-79
2021/01/10 11:34:02;;;;;;;12.70;9.50;;;13.20;99.90;;;;;;5051327;28;20377;-79
2021/01/10 11:36:28;;;;;;;9.80;7.60;;;13.60;99.90;;;;;;5067589;28;20429;-80
2021/01/10 11:38:55;;;;;;;12.50;9.73;;;11.20;99.90;;;;;;5067132;28;20926;-80
2021/01/10 11:41:22;;;;;;;11.63;8.70;;;10.80;99.90;;;;;;5049030;28;20168;-80
2021/01/10 11:43:49;;;;;;;9.33;6.67;;;8.10;99.90;;;;;;5049230;28;20388;-79
2021/01/10 11:46:15;;;;;;;13.50;8.80;;;8.90;99.90;;;;;;5071141;28;20391;-78
2021/01/10 11:48:42;;;;;;;8.80;7.07;;;8.90;99.90;;;;;;5075970;28;20397;-79
2021/01/10 11:51:09;;;;;;;10.33;7.70;;;8.40;99.90;;;;;;5072541;28;20411;-78
2021/01/10 11:53:35;;;;;;;12.40;9.03;;;8.10;99.90;;;;;;5068780;28;20382;-79
2021/01/10 11:56:01;;;;;;;11.30;8.10;;;7.90;99.90;;;;;;5050527;28;20461;-79
2021/01/10 11:58:27;;;;;;;14.60;8.60;;;7.80;99.90;;;;;;5050767;28;20200;-79
2021/01/10 12:00:56;;;;;;;10.60;7.60;;;10.20;99.90;;;;;;5065685;28;20403;-79
2021/01/10 12:03:23;;;;;;;14.30;8.17;;;11.80;99.90;;;;;;5064920;28;20384;-80
2021/01/10 12:05:50;;;;;;;10.97;7.80;;;12.30;99.90;;;;;;5064115;28;20520;-79
2021/01/10 12:08:16;;;;;;;11.57;8.07;;;12.30;99.90;;;;;;5064628;28;20465;-80
2021/01/10 12:10:42;;;;;;;10.07;8.43;;;13.40;99.90;;;;;;5064117;28;20406;-80
2021/01/10 12:13:09;;;;;;;11.50;9.93;;;14.40;99.90;;;;;;5065814;28;20701;-80
2021/01/10 12:15:36;;;;;;;9.20;7.87;;;13.80;99.90;;;;;;5065405;28;20407;-79
2021/01/10 12:18:03;;;;;;;10.60;8.30;;;11.90;99.90;;;;;;5061706;28;20572;-78
2021/01/10 12:20:30;;;;;;;9.30;7.10;;;10.20;99.90;;;;;;5065382;28;20453;-81
2021/01/10 12:22:56;;;;;;;9.98;8.43;;;11.70;99.90;;;;;;5066655;28;20515;-81
2021/01/10 12:25:22;;;;;;;8.97;7.73;;;13.40;99.90;;;;;;5068298;28;20203;-81
2021/01/10 12:27:48;;;;;;;13.70;7.80;;;13.00;96.80;;;;;;5067688;28;20406;-81
2021/01/10 12:30:15;;;;;;;17.20;10.53;;;12.20;99.50;;;;;;5068874;28;20399;-81
2021/01/10 12:32:41;;;;;;;14.30;9.50;;;12.00;99.70;;;;;;5068896;28;20403;-80
2021/01/10 12:35:10;;;;;;;10.53;9.13;;;12.30;99.90;;;;;;5067707;28;20922;-80
2021/01/10 12:37:36;;;;;;;19.60;12.77;;;12.40;97.70;;;;;;5070778;28;20432;-80
2021/01/10 12:40:05;;;;;;;18.20;11.30;;;12.20;98.40;;;;;;5070237;28;20398;-79
2021/01/10 12:42:31;;;;;;;10.40;8.57;;;11.90;99.60;;;;;;5052545;28;20453;-79
2021/01/10 12:44:57;;;;;;;10.30;7.60;;;12.30;99.70;;;;;;5071245;28;20395;-79
2021/01/10 12:47:22;;;;;;;9.80;8.40;;;13.30;97.60;;;;;;5036497;28;20533;-80
2021/01/10 12:49:48;;;;;;;12.40;9.03;;;11.90;99.10;;;;;;5064128;28;20236;-82
2021/01/10 12:52:14;;;;;;;9.43;7.90;;;12.30;99.90;;;;;;5060388;28;20159;-81
2021/01/10 12:54:40;;;;;;;10.03;8.93;;;12.80;97.80;;;;;;5024921;28;20248;-81
2021/01/10 12:57:06;;;;;;;9.90;8.87;;;14.00;95.60;;;;;;5049743;28;20251;-81
2021/01/10 12:59:32;;;;;;;9.77;8.63;;;14.10;94.30;;;;;;5072167;28;20200;-82
2021/01/10 13:01:58;;;;;;;9.07;8.13;;;13.20;92.90;;;;;;5044661;28;20895;-82